sensor_id;sensor_type;location;lat;lon;timestamp;temperature;humidity
8711;DHT22;4392;47.400;8.062;2023-04-22T00:00:41;10.00;99.90
8711;DHT22;4392;47.400;8.062;2023-04-22T00:03:07;10.00;99.90
8711;DHT22;4392;47.400;8.062;2023-04-22T00:05:36;10.20;99.90
8711;DHT22;4392;47.400;8.062;2023-04-22T00:08:02;10.20;99.90
8711;DHT22;4392;47.400;8.062;2023-04-22T00:10:28;9.80;99.90
8711;DHT22;4392;47.400;8.062;2023-04-22T00:12:56;9.90;99.90
8711;DHT22;4392;47.400;8.062;2023-04-22T00:15:25;9.90;99.90
8711;DHT22;4392;47.400;8.062;2023-04-22T00:17:52;10.60;99.90
8711;DHT22;4392;47.400;8.062;2023-04-22T00:20:19;10.90;99.90
8711;DHT22;4392;47.400;8.062;2023-04-22T00:22:50;10.40;99.90
8711;DHT22;4392;47.400;8.062;2023-04-22T00:25:16;10.10;99.90
8711;DHT22;4392;47.400;8.062;2023-04-22T00:27:42;10.00;99.90
8711;DHT22;4392;47.400;8.062;2023-04-22T00:30:10;9.80;99.90
8711;DHT22;4392;47.400;8.062;2023-04-22T00:32:35;9.70;99.90
8711;DHT22;4392;47.400;8.062;2023-04-22T00:35:02;9.60;99.90
8711;DHT22;4392;47.400;8.062;2023-04-22T00:37:28;9.50;99.90
8711;DHT22;4392;47.400;8.062;2023-04-22T00:39:57;9.50;99.90
8711;DHT22;4392;47.400;8.062;2023-04-22T00:42:22;9.50;99.90
8711;DHT22;4392;47.400;8.062;2023-04-22T00:44:48;9.60;99.90
8711;DHT22;4392;47.400;8.062;2023-04-22T00:47:16;9.60;99.90
8711;DHT22;4392;47.400;8.062;2023-04-22T00:49:42;9.50;99.90
8711;DHT22;4392;47.400;8.062;2023-04-22T00:52:11;9.60;99.90
8711;DHT22;4392;47.400;8.062;2023-04-22T00:54:37;10.30;99.90
8711;DHT22;4392;47.400;8.062;2023-04-22T00:57:04;10.60;99.90
8711;DHT22;4392;47.400;8.062;2023-04-22T00:59:30;10.20;99.90
8711;DHT22;4392;47.400;8.062;2023-04-22T01:01:59;9.90;99.90
8711;DHT22;4392;47.400;8.062;2023-04-22T01:04:25;9.60;99.90
8711;DHT22;4392;47.400;8.062;2023-04-22T01:06:51;9.50;99.90
8711;DHT22;4392;47.400;8.062;2023-04-22T01:09:18;9.50;99.90
8711;DHT22;4392;47.400;8.062;2023-04-22T01:11:48;9.50;99.90
8711;DHT22;4392;47.400;8.062;2023-04-22T01:14:14;9.40;99.90
8711;DHT22;4392;47.400;8.062;2023-04-22T01:16:40;9.40;99.90
8711;DHT22;4392;47.400;8.062;2023-04-22T01:19:08;9.20;99.90
8711;DHT22;4392;47.400;8.062;2023-04-22T01:21:42;9.20;99.90
8711;DHT22;4392;47.400;8.062;2023-04-22T01:24:09;9.20;99.90
8711;DHT22;4392;47.400;8.062;2023-04-22T01:26:37;9.30;99.90
8711;DHT22;4392;47.400;8.062;2023-04-22T01:29:04;9.30;99.90
8711;DHT22;4392;47.400;8.062;2023-04-22T01:31:30;9.20;99.90
8711;DHT22;4392;47.400;8.062;2023-04-22T01:33:56;9.20;99.90
8711;DHT22;4392;47.400;8.062;2023-04-22T01:36:26;9.50;99.90
8711;DHT22;4392;47.400;8.062;2023-04-22T01:38:52;9.40;99.90
8711;DHT22;4392;47.400;8.062;2023-04-22T01:41:18;9.20;99.90
8711;DHT22;4392;47.400;8.062;2023-04-22T01:43:44;9.10;99.90
8711;DHT22;4392;47.400;8.062;2023-04-22T01:46:09;9.10;99.90
8711;DHT22;4392;47.400;8.062;2023-04-22T01:48:41;9.10;99.90
8711;DHT22;4392;47.400;8.062;2023-04-22T01:51:06;9.00;99.90
8711;DHT22;4392;47.400;8.062;2023-04-22T01:53:32;8.90;99.90
8711;DHT22;4392;47.400;8.062;2023-04-22T01:55:58;9.00;99.90
8711;DHT22;4392;47.400;8.062;2023-04-22T01:58:29;8.90;99.90
8711;DHT22;4392;47.400;8.062;2023-04-22T02:00:55;8.90;99.90
8711;DHT22;4392;47.400;8.062;2023-04-22T02:03:21;8.90;99.90
8711;DHT22;4392;47.400;8.062;2023-04-22T02:05:46;8.90;99.90
8711;DHT22;4392;47.400;8.062;2023-04-22T02:08:12;8.80;99.90
8711;DHT22;4392;47.400;8.062;2023-04-22T02:10:43;8.70;99.90
8711;DHT22;4392;47.400;8.062;2023-04-22T02:13:08;8.70;99.90
8711;DHT22;4392;47.400;8.062;2023-04-22T02:15:34;8.70;99.90
8711;DHT22;4392;47.400;8.062;2023-04-22T02:18:06;8.70;99.90
8711;DHT22;4392;47.400;8.062;2023-04-22T02:20:35;8.70;99.90
8711;DHT22;4392;47.400;8.062;2023-04-22T02:23:06;8.70;99.90
8711;DHT22;4392;47.400;8.062;2023-04-22T02:25:31;8.70;99.90
8711;DHT22;4392;47.400;8.062;2023-04-22T02:27:57;8.80;99.90
8711;DHT22;4392;47.400;8.062;2023-04-22T02:30:23;8.70;99.90
8711;DHT22;4392;47.400;8.062;2023-04-22T02:32:49;8.70;99.90
8711;DHT22;4392;47.400;8.062;2023-04-22T02:35:20;8.70;99.90
8711;DHT22;4392;47.400;8.062;2023-04-22T02:37:45;8.70;99.90
8711;DHT22;4392;47.400;8.062;2023-04-22T02:40:11;8.70;99.90
8711;DHT22;4392;47.400;8.062;2023-04-22T02:42:37;8.80;99.90
8711;DHT22;4392;47.400;8.062;2023-04-22T02:45:03;8.70;99.90
8711;DHT22;4392;47.400;8.062;2023-04-22T02:47:29;8.60;99.90
8711;DHT22;4392;47.400;8.062;2023-04-22T02:50:02;8.60;99.90
8711;DHT22;4392;47.400;8.062;2023-04-22T02:52:28;8.60;99.90
8711;DHT22;4392;47.400;8.062;2023-04-22T02:54:57;8.50;99.90
8711;DHT22;4392;47.400;8.062;2023-04-22T02:57:23;8.60;99.90
8711;DHT22;4392;47.400;8.062;2023-04-22T02:59:48;8.50;99.90
8711;DHT22;4392;47.400;8.062;2023-04-22T03:02:14;8.50;99.90
8711;DHT22;4392;47.400;8.062;2023-04-22T03:04:41;8.40;99.90
8711;DHT22;4392;47.400;8.062;2023-04-22T03:07:12;8.50;99.90
8711;DHT22;4392;47.400;8.062;2023-04-22T03:09:38;8.50;99.90
8711;DHT22;4392;47.400;8.062;2023-04-22T03:12:03;8.50;99.90
8711;DHT22;4392;47.400;8.062;2023-04-22T03:14:29;8.50;99.90
8711;DHT22;4392;47.400;8.062;2023-04-22T03:17:01;8.50;99.90
8711;DHT22;4392;47.400;8.062;2023-04-22T03:19:26;8.50;99.90
8711;DHT22;4392;47.400;8.062;2023-04-22T03:21:52;8.30;99.90
8711;DHT22;4392;47.400;8.062;2023-04-22T03:24:18;8.40;99.90
8711;DHT22;4392;47.400;8.062;2023-04-22T03:26:46;8.50;99.90
8711;DHT22;4392;47.400;8.062;2023-04-22T03:29:12;8.40;99.90
8711;DHT22;4392;47.400;8.062;2023-04-22T03:31:40;8.30;99.90
8711;DHT22;4392;47.400;8.062;2023-04-22T03:34:06;8.20;99.90
8711;DHT22;4392;47.400;8.062;2023-04-22T03:36:37;8.10;99.90
8711;DHT22;4392;47.400;8.062;2023-04-22T03:39:03;8.00;99.90
8711;DHT22;4392;47.400;8.062;2023-04-22T03:41:29;8.00;99.90
8711;DHT22;4392;47.400;8.062;2023-04-22T03:43:55;8.00;99.90
8711;DHT22;4392;47.400;8.062;2023-04-22T03:46:20;8.00;99.90
8711;DHT22;4392;47.400;8.062;2023-04-22T03:48:49;8.00;99.90
8711;DHT22;4392;47.400;8.062;2023-04-22T03:51:15;7.90;99.90
8711;DHT22;4392;47.400;8.062;2023-04-22T03:53:41;7.90;99.90
8711;DHT22;4392;47.400;8.062;2023-04-22T03:56:06;7.90;99.90
8711;DHT22;4392;47.400;8.062;2023-04-22T03:58:34;7.80;99.90
8711;DHT22;4392;47.400;8.062;2023-04-22T04:01:06;7.90;99.90
8711;DHT22;4392;47.400;8.062;2023-04-22T04:03:32;7.80;99.90
8711;DHT22;4392;47.400;8.062;2023-04-22T04:05:58;7.80;99.90
8711;DHT22;4392;47.400;8.062;2023-04-22T04:08:28;7.70;99.90
8711;DHT22;4392;47.400;8.062;2023-04-22T04:10:54;7.80;99.90
8711;DHT22;4392;47.400;8.062;2023-04-22T04:13:20;7.70;99.90
8711;DHT22;4392;47.400;8.062;2023-04-22T04:15:46;7.80;99.90
8711;DHT22;4392;47.400;8.062;2023-04-22T04:18:12;7.70;99.90
8711;DHT22;4392;47.400;8.062;2023-04-22T04:20:41;7.80;99.90
8711;DHT22;4392;47.400;8.062;2023-04-22T04:23:07;7.80;99.90
8711;DHT22;4392;47.400;8.062;2023-04-22T04:25:33;7.70;99.90
8711;DHT22;4392;47.400;8.062;2023-04-22T04:28:08;7.60;99.90
8711;DHT22;4392;47.400;8.062;2023-04-22T04:30:36;7.70;99.90
8711;DHT22;4392;47.400;8.062;2023-04-22T04:33:02;7.70;99.90
8711;DHT22;4392;47.400;8.062;2023-04-22T04:35:35;7.80;99.90
8711;DHT22;4392;47.400;8.062;2023-04-22T04:38:09;7.80;99.90
8711;DHT22;4392;47.400;8.062;2023-04-22T04:40:36;7.80;99.90
8711;DHT22;4392;47.400;8.062;2023-04-22T04:43:01;7.80;99.90
8711;DHT22;4392;47.400;8.062;2023-04-22T04:45:33;7.80;99.90
8711;DHT22;4392;47.400;8.062;2023-04-22T04:47:58;7.90;99.90
8711;DHT22;4392;47.400;8.062;2023-04-22T04:50:25;7.90;99.90
8711;DHT22;4392;47.400;8.062;2023-04-22T04:52:59;7.90;99.90
8711;DHT22;4392;47.400;8.062;2023-04-22T04:55:24;7.80;99.90
8711;DHT22;4392;47.400;8.062;2023-04-22T04:57:58;7.70;99.90
8711;DHT22;4392;47.400;8.062;2023-04-22T05:00:24;7.80;99.90
8711;DHT22;4392;47.400;8.062;2023-04-22T05:02:50;7.80;99.90
8711;DHT22;4392;47.400;8.062;2023-04-22T05:05:19;8.00;99.90
8711;DHT22;4392;47.400;8.062;2023-04-22T05:07:45;8.10;99.90
8711;DHT22;4392;47.400;8.062;2023-04-22T05:10:10;8.20;99.90
8711;DHT22;4392;47.400;8.062;2023-04-22T05:12:39;8.20;99.90
8711;DHT22;4392;47.400;8.062;2023-04-22T05:15:06;8.50;99.90
8711;DHT22;4392;47.400;8.062;2023-04-22T05:17:32;8.50;99.90
8711;DHT22;4392;47.400;8.062;2023-04-22T05:19:57;8.50;99.90
8711;DHT22;4392;47.400;8.062;2023-04-22T05:22:23;8.50;99.90
8711;DHT22;4392;47.400;8.062;2023-04-22T05:24:52;8.50;99.90
8711;DHT22;4392;47.400;8.062;2023-04-22T05:27:20;8.20;99.90
8711;DHT22;4392;47.400;8.062;2023-04-22T05:29:45;8.10;99.90
8711;DHT22;4392;47.400;8.062;2023-04-22T05:32:17;8.30;99.90
8711;DHT22;4392;47.400;8.062;2023-04-22T05:34:43;8.50;99.90
8711;DHT22;4392;47.400;8.062;2023-04-22T05:37:09;8.40;99.90
8711;DHT22;4392;47.400;8.062;2023-04-22T05:39:35;8.50;99.90
8711;DHT22;4392;47.400;8.062;2023-04-22T05:42:01;8.50;99.90
8711;DHT22;4392;47.400;8.062;2023-04-22T05:44:30;8.50;99.90
8711;DHT22;4392;47.400;8.062;2023-04-22T05:46:57;8.20;99.90
8711;DHT22;4392;47.400;8.062;2023-04-22T05:49:22;8.20;99.90
8711;DHT22;4392;47.400;8.062;2023-04-22T05:51:49;8.10;99.90
8711;DHT22;4392;47.400;8.062;2023-04-22T05:54:15;8.20;99.90
8711;DHT22;4392;47.400;8.062;2023-04-22T05:56:42;8.40;99.90
8711;DHT22;4392;47.400;8.062;2023-04-22T05:59:08;8.40;99.90
8711;DHT22;4392;47.400;8.062;2023-04-22T06:01:38;8.40;99.90
8711;DHT22;4392;47.400;8.062;2023-04-22T06:04:03;8.40;99.90
8711;DHT22;4392;47.400;8.062;2023-04-22T06:06:32;8.50;99.90
8711;DHT22;4392;47.400;8.062;2023-04-22T06:09:02;8.50;99.90
8711;DHT22;4392;47.400;8.062;2023-04-22T06:11:28;8.60;99.90
8711;DHT22;4392;47.400;8.062;2023-04-22T06:13:53;8.60;99.90
8711;DHT22;4392;47.400;8.062;2023-04-22T06:16:20;8.70;99.90
8711;DHT22;4392;47.400;8.062;2023-04-22T06:18:48;8.70;99.90
8711;DHT22;4392;47.400;8.062;2023-04-22T06:21:17;8.70;99.90
8711;DHT22;4392;47.400;8.062;2023-04-22T06:23:44;8.60;99.90
8711;DHT22;4392;47.400;8.062;2023-04-22T06:26:11;8.70;99.90
8711;DHT22;4392;47.400;8.062;2023-04-22T06:28:46;8.80;99.90
8711;DHT22;4392;47.400;8.062;2023-04-22T06:31:11;8.90;99.90
8711;DHT22;4392;47.400;8.062;2023-04-22T06:33:40;8.90;99.90
8711;DHT22;4392;47.400;8.062;2023-04-22T06:36:06;8.90;99.90
8711;DHT22;4392;47.400;8.062;2023-04-22T06:38:31;8.90;99.90
8711;DHT22;4392;47.400;8.062;2023-04-22T06:40:57;8.90;99.90
8711;DHT22;4392;47.400;8.062;2023-04-22T06:43:23;8.70;99.90
8711;DHT22;4392;47.400;8.062;2023-04-22T06:45:48;8.80;99.90
8711;DHT22;4392;47.400;8.062;2023-04-22T06:48:20;8.80;99.90
8711;DHT22;4392;47.400;8.062;2023-04-22T06:50:47;8.90;99.90
8711;DHT22;4392;47.400;8.062;2023-04-22T06:53:12;8.90;99.90
8711;DHT22;4392;47.400;8.062;2023-04-22T06:55:38;9.00;99.90
8711;DHT22;4392;47.400;8.062;2023-04-22T06:58:10;9.00;99.90
8711;DHT22;4392;47.400;8.062;2023-04-22T07:00:35;9.00;99.90
8711;DHT22;4392;47.400;8.062;2023-04-22T07:03:01;9.00;99.90
8711;DHT22;4392;47.400;8.062;2023-04-22T07:05:30;9.00;99.90
8711;DHT22;4392;47.400;8.062;2023-04-22T07:07:58;9.00;99.90
8711;DHT22;4392;47.400;8.062;2023-04-22T07:10:24;8.90;99.90
8711;DHT22;4392;47.400;8.062;2023-04-22T07:12:55;9.00;99.90
8711;DHT22;4392;47.400;8.062;2023-04-22T07:15:21;9.00;99.90
8711;DHT22;4392;47.400;8.062;2023-04-22T07:17:46;9.10;99.90
8711;DHT22;4392;47.400;8.062;2023-04-22T07:20:15;9.20;99.90
8711;DHT22;4392;47.400;8.062;2023-04-22T07:22:41;9.20;99.90
8711;DHT22;4392;47.400;8.062;2023-04-22T07:25:06;8.90;99.90
8711;DHT22;4392;47.400;8.062;2023-04-22T07:27:34;8.90;99.90
8711;DHT22;4392;47.400;8.062;2023-04-22T07:30:06;8.90;99.90
8711;DHT22;4392;47.400;8.062;2023-04-22T07:32:32;9.20;99.90
8711;DHT22;4392;47.400;8.062;2023-04-22T07:34:58;9.40;99.90
8711;DHT22;4392;47.400;8.062;2023-04-22T07:37:24;9.50;99.90
8711;DHT22;4392;47.400;8.062;2023-04-22T07:39:53;9.60;99.90
8711;DHT22;4392;47.400;8.062;2023-04-22T07:42:20;9.70;99.90
8711;DHT22;4392;47.400;8.062;2023-04-22T07:44:53;9.60;99.90
8711;DHT22;4392;47.400;8.062;2023-04-22T07:47:21;9.60;99.90
8711;DHT22;4392;47.400;8.062;2023-04-22T07:49:47;9.60;99.90
8711;DHT22;4392;47.400;8.062;2023-04-22T07:52:18;9.80;99.90
8711;DHT22;4392;47.400;8.062;2023-04-22T07:54:45;9.80;99.90
8711;DHT22;4392;47.400;8.062;2023-04-22T07:57:11;9.80;99.90
8711;DHT22;4392;47.400;8.062;2023-04-22T07:59:43;9.80;99.90
8711;DHT22;4392;47.400;8.062;2023-04-22T08:02:08;9.70;99.90
8711;DHT22;4392;47.400;8.062;2023-04-22T08:04:34;9.50;99.90
8711;DHT22;4392;47.400;8.062;2023-04-22T08:07:01;9.40;99.90
8711;DHT22;4392;47.400;8.062;2023-04-22T08:09:31;9.50;99.90
8711;DHT22;4392;47.400;8.062;2023-04-22T08:11:59;9.70;99.90
8711;DHT22;4392;47.400;8.062;2023-04-22T08:14:25;9.90;99.90
8711;DHT22;4392;47.400;8.062;2023-04-22T08:16:57;10.00;99.90
8711;DHT22;4392;47.400;8.062;2023-04-22T08:19:23;9.90;99.90
8711;DHT22;4392;47.400;8.062;2023-04-22T08:21:48;10.00;99.90
8711;DHT22;4392;47.400;8.062;2023-04-22T08:24:14;10.10;99.90
8711;DHT22;4392;47.400;8.062;2023-04-22T08:26:40;9.90;99.90
8711;DHT22;4392;47.400;8.062;2023-04-22T08:29:12;10.10;99.90
8711;DHT22;4392;47.400;8.062;2023-04-22T08:31:38;10.30;99.90
8711;DHT22;4392;47.400;8.062;2023-04-22T08:34:04;10.40;99.90
8711;DHT22;4392;47.400;8.062;2023-04-22T08:36:32;10.50;99.90
8711;DHT22;4392;47.400;8.062;2023-04-22T08:38:58;10.50;99.90
8711;DHT22;4392;47.400;8.062;2023-04-22T08:41:25;10.50;99.90
8711;DHT22;4392;47.400;8.062;2023-04-22T08:43:52;10.60;99.90
8711;DHT22;4392;47.400;8.062;2023-04-22T08:46:18;10.70;99.90
8711;DHT22;4392;47.400;8.062;2023-04-22T08:48:49;10.70;99.90
8711;DHT22;4392;47.400;8.062;2023-04-22T08:51:17;10.80;99.90
8711;DHT22;4392;47.400;8.062;2023-04-22T08:53:46;10.80;99.90
8711;DHT22;4392;47.400;8.062;2023-04-22T08:56:12;10.90;99.90
8711;DHT22;4392;47.400;8.062;2023-04-22T08:58:45;11.00;99.90
8711;DHT22;4392;47.400;8.062;2023-04-22T09:01:12;11.10;99.90
8711;DHT22;4392;47.400;8.062;2023-04-22T09:03:38;11.10;99.90
8711;DHT22;4392;47.400;8.062;2023-04-22T09:06:14;11.00;99.90
8711;DHT22;4392;47.400;8.062;2023-04-22T09:08:41;11.10;99.90
8711;DHT22;4392;47.400;8.062;2023-04-22T09:11:12;11.30;99.90
8711;DHT22;4392;47.400;8.062;2023-04-22T09:13:39;11.30;99.90
8711;DHT22;4392;47.400;8.062;2023-04-22T09:16:07;11.40;99.90
8711;DHT22;4392;47.400;8.062;2023-04-22T09:18:42;11.40;99.90
8711;DHT22;4392;47.400;8.062;2023-04-22T09:21:14;11.50;99.90
8711;DHT22;4392;47.400;8.062;2023-04-22T09:26:20;11.70;99.90
8711;DHT22;4392;47.400;8.062;2023-04-22T09:28:51;11.70;99.90
8711;DHT22;4392;47.400;8.062;2023-04-22T09:31:21;11.70;99.90
8711;DHT22;4392;47.400;8.062;2023-04-22T09:33:56;11.80;99.90
8711;DHT22;4392;47.400;8.062;2023-04-22T09:36:26;11.80;99.90
8711;DHT22;4392;47.400;8.062;2023-04-22T09:39:05;11.80;99.90
8711;DHT22;4392;47.400;8.062;2023-04-22T09:41:40;12.00;99.90
8711;DHT22;4392;47.400;8.062;2023-04-22T09:44:18;12.10;99.90
8711;DHT22;4392;47.400;8.062;2023-04-22T09:46:44;12.20;99.90
8711;DHT22;4392;47.400;8.062;2023-04-22T09:49:10;12.30;99.90
8711;DHT22;4392;47.400;8.062;2023-04-22T09:51:39;12.40;99.90
8711;DHT22;4392;47.400;8.062;2023-04-22T09:54:07;12.40;99.90
8711;DHT22;4392;47.400;8.062;2023-04-22T09:56:41;12.50;99.90
8711;DHT22;4392;47.400;8.062;2023-04-22T09:59:10;12.50;99.90
8711;DHT22;4392;47.400;8.062;2023-04-22T10:01:43;12.70;99.90
8711;DHT22;4392;47.400;8.062;2023-04-22T10:04:11;12.80;99.90
8711;DHT22;4392;47.400;8.062;2023-04-22T10:06:41;12.90;99.90
8711;DHT22;4392;47.400;8.062;2023-04-22T10:09:09;12.80;99.90
8711;DHT22;4392;47.400;8.062;2023-04-22T10:11:41;12.90;99.90
8711;DHT22;4392;47.400;8.062;2023-04-22T10:14:06;12.90;99.90
8711;DHT22;4392;47.400;8.062;2023-04-22T10:16:36;13.00;99.90
8711;DHT22;4392;47.400;8.062;2023-04-22T10:19:06;13.10;99.90
8711;DHT22;4392;47.400;8.062;2023-04-22T10:21:35;13.10;99.90
8711;DHT22;4392;47.400;8.062;2023-04-22T10:24:07;13.20;99.90
8711;DHT22;4392;47.400;8.062;2023-04-22T10:26:59;13.20;99.90
8711;DHT22;4392;47.400;8.062;2023-04-22T10:29:45;13.20;99.90
8711;DHT22;4392;47.400;8.062;2023-04-22T10:34:46;13.30;99.90
8711;DHT22;4392;47.400;8.062;2023-04-22T10:37:13;13.30;99.90
8711;DHT22;4392;47.400;8.062;2023-04-22T10:39:42;13.30;99.90
8711;DHT22;4392;47.400;8.062;2023-04-22T10:42:28;13.40;99.90
8711;DHT22;4392;47.400;8.062;2023-04-22T10:45:01;13.60;99.90
8711;DHT22;4392;47.400;8.062;2023-04-22T10:47:36;13.70;99.90
8711;DHT22;4392;47.400;8.062;2023-04-22T10:50:39;13.70;99.90
8711;DHT22;4392;47.400;8.062;2023-04-22T10:53:35;13.80;99.90
8711;DHT22;4392;47.400;8.062;2023-04-22T10:56:01;13.80;99.90
8711;DHT22;4392;47.400;8.062;2023-04-22T10:58:40;13.90;99.90
8711;DHT22;4392;47.400;8.062;2023-04-22T11:01:14;14.00;99.90
8711;DHT22;4392;47.400;8.062;2023-04-22T11:03:39;14.10;99.90
8711;DHT22;4392;47.400;8.062;2023-04-22T11:06:37;14.30;99.90
8711;DHT22;4392;47.400;8.062;2023-04-22T11:09:11;14.50;99.90
8711;DHT22;4392;47.400;8.062;2023-04-22T11:11:37;14.50;99.90
8711;DHT22;4392;47.400;8.062;2023-04-22T11:14:03;14.50;99.90
8711;DHT22;4392;47.400;8.062;2023-04-22T11:16:29;14.60;99.90
8711;DHT22;4392;47.400;8.062;2023-04-22T11:19:00;14.60;99.90
8711;DHT22;4392;47.400;8.062;2023-04-22T11:21:26;14.70;99.90
8711;DHT22;4392;47.400;8.062;2023-04-22T11:23:52;14.70;99.90
8711;DHT22;4392;47.400;8.062;2023-04-22T11:26:18;14.60;99.90
8711;DHT22;4392;47.400;8.062;2023-04-22T11:29:03;14.60;99.90
8711;DHT22;4392;47.400;8.062;2023-04-22T11:31:29;14.60;99.90
8711;DHT22;4392;47.400;8.062;2023-04-22T11:34:00;14.60;99.90
8711;DHT22;4392;47.400;8.062;2023-04-22T11:36:26;14.60;99.90
8711;DHT22;4392;47.400;8.062;2023-04-22T11:38:55;14.70;99.90
8711;DHT22;4392;47.400;8.062;2023-04-22T11:41:27;14.70;99.90
8711;DHT22;4392;47.400;8.062;2023-04-22T11:43:54;14.70;99.90
8711;DHT22;4392;47.400;8.062;2023-04-22T11:46:29;14.70;99.90
8711;DHT22;4392;47.400;8.062;2023-04-22T11:49:14;14.70;99.90
8711;DHT22;4392;47.400;8.062;2023-04-22T11:51:56;14.80;99.90
8711;DHT22;4392;47.400;8.062;2023-04-22T11:54:40;14.90;99.90
8711;DHT22;4392;47.400;8.062;2023-04-22T11:57:07;14.90;99.90
8711;DHT22;4392;47.400;8.062;2023-04-22T11:59:42;15.00;99.90
8711;DHT22;4392;47.400;8.062;2023-04-22T12:02:08;15.10;99.40
8711;DHT22;4392;47.400;8.062;2023-04-22T12:04:54;15.20;98.80
8711;DHT22;4392;47.400;8.062;2023-04-22T12:07:22;15.30;98.90
8711;DHT22;4392;47.400;8.062;2023-04-22T12:09:53;15.50;99.20
8711;DHT22;4392;47.400;8.062;2023-04-22T12:12:24;15.60;98.50
8711;DHT22;4392;47.400;8.062;2023-04-22T12:14:53;15.60;95.50
8711;DHT22;4392;47.400;8.062;2023-04-22T12:17:23;15.70;93.50
8711;DHT22;4392;47.400;8.062;2023-04-22T12:19:58;15.70;93.40
8711;DHT22;4392;47.400;8.062;2023-04-22T12:22:28;15.80;93.10
8711;DHT22;4392;47.400;8.062;2023-04-22T12:25:00;15.80;91.20
8711;DHT22;4392;47.400;8.062;2023-04-22T12:27:26;15.80;90.70
8711;DHT22;4392;47.400;8.062;2023-04-22T12:29:56;15.90;89.90
8711;DHT22;4392;47.400;8.062;2023-04-22T12:32:25;16.00;87.50
8711;DHT22;4392;47.400;8.062;2023-04-22T12:34:51;16.10;87.50
8711;DHT22;4392;47.400;8.062;2023-04-22T12:37:17;16.20;87.10
8711;DHT22;4392;47.400;8.062;2023-04-22T12:40:03;16.30;86.00
8711;DHT22;4392;47.400;8.062;2023-04-22T12:42:30;16.40;84.30
8711;DHT22;4392;47.400;8.062;2023-04-22T12:44:56;16.30;85.10
8711;DHT22;4392;47.400;8.062;2023-04-22T12:47:21;16.40;85.70
8711;DHT22;4392;47.400;8.062;2023-04-22T12:49:48;16.40;85.40
8711;DHT22;4392;47.400;8.062;2023-04-22T12:52:14;16.40;85.90
8711;DHT22;4392;47.400;8.062;2023-04-22T12:54:40;16.40;85.70
8711;DHT22;4392;47.400;8.062;2023-04-22T12:57:06;16.50;85.30
8711;DHT22;4392;47.400;8.062;2023-04-22T12:59:32;16.40;85.30
8711;DHT22;4392;47.400;8.062;2023-04-22T13:02:03;16.40;85.60
8711;DHT22;4392;47.400;8.062;2023-04-22T13:04:29;16.30;85.10
8711;DHT22;4392;47.400;8.062;2023-04-22T13:06:55;16.30;84.90
8711;DHT22;4392;47.400;8.062;2023-04-22T13:09:29;16.30;84.00
8711;DHT22;4392;47.400;8.062;2023-04-22T13:11:57;16.30;83.90
8711;DHT22;4392;47.400;8.062;2023-04-22T13:14:24;16.30;82.60
8711;DHT22;4392;47.400;8.062;2023-04-22T13:16:50;16.30;83.10
8711;DHT22;4392;47.400;8.062;2023-04-22T13:19:16;16.30;83.10
8711;DHT22;4392;47.400;8.062;2023-04-22T13:21:47;16.20;83.60
8711;DHT22;4392;47.400;8.062;2023-04-22T13:24:18;16.10;84.30
8711;DHT22;4392;47.400;8.062;2023-04-22T13:26:46;16.10;84.30
8711;DHT22;4392;47.400;8.062;2023-04-22T13:29:12;16.10;84.90
8711;DHT22;4392;47.400;8.062;2023-04-22T13:31:42;16.10;85.30
8711;DHT22;4392;47.400;8.062;2023-04-22T13:34:18;16.10;85.40
8711;DHT22;4392;47.400;8.062;2023-04-22T13:36:44;16.10;84.50
8711;DHT22;4392;47.400;8.062;2023-04-22T13:39:22;16.00;84.50
8711;DHT22;4392;47.400;8.062;2023-04-22T13:42:06;16.00;84.30
8711;DHT22;4392;47.400;8.062;2023-04-22T13:44:36;16.10;82.50
8711;DHT22;4392;47.400;8.062;2023-04-22T13:47:07;16.00;83.80
8711;DHT22;4392;47.400;8.062;2023-04-22T13:49:33;16.00;82.30
8711;DHT22;4392;47.400;8.062;2023-04-22T13:52:01;16.10;81.20
8711;DHT22;4392;47.400;8.062;2023-04-22T13:54:27;16.00;81.20
8711;DHT22;4392;47.400;8.062;2023-04-22T13:56:58;16.00;81.00
8711;DHT22;4392;47.400;8.062;2023-04-22T13:59:24;16.00;81.60
8711;DHT22;4392;47.400;8.062;2023-04-22T14:01:49;16.00;81.60
8711;DHT22;4392;47.400;8.062;2023-04-22T14:04:15;16.00;80.70
8711;DHT22;4392;47.400;8.062;2023-04-22T14:06:41;16.00;80.50
8711;DHT22;4392;47.400;8.062;2023-04-22T14:09:16;15.90;81.20
8711;DHT22;4392;47.400;8.062;2023-04-22T14:11:44;15.90;82.00
8711;DHT22;4392;47.400;8.062;2023-04-22T14:14:12;15.80;81.90
8711;DHT22;4392;47.400;8.062;2023-04-22T14:16:38;15.80;82.80
8711;DHT22;4392;47.400;8.062;2023-04-22T14:19:04;15.80;83.70
8711;DHT22;4392;47.400;8.062;2023-04-22T14:21:30;15.70;83.70
8711;DHT22;4392;47.400;8.062;2023-04-22T14:23:56;15.70;84.30
8711;DHT22;4392;47.400;8.062;2023-04-22T14:26:27;15.70;84.60
8711;DHT22;4392;47.400;8.062;2023-04-22T14:28:53;15.70;84.30
8711;DHT22;4392;47.400;8.062;2023-04-22T14:31:19;15.70;85.20
8711;DHT22;4392;47.400;8.062;2023-04-22T14:33:45;15.70;84.40
8711;DHT22;4392;47.400;8.062;2023-04-22T14:36:14;15.80;84.60
8711;DHT22;4392;47.400;8.062;2023-04-22T14:38:40;15.80;84.30
8711;DHT22;4392;47.400;8.062;2023-04-22T14:41:06;15.80;85.20
8711;DHT22;4392;47.400;8.062;2023-04-22T14:43:31;15.80;85.30
8711;DHT22;4392;47.400;8.062;2023-04-22T14:46:01;15.80;85.40
8711;DHT22;4392;47.400;8.062;2023-04-22T14:48:27;15.70;85.30
8711;DHT22;4392;47.400;8.062;2023-04-22T14:50:55;15.70;85.40
8711;DHT22;4392;47.400;8.062;2023-04-22T14:53:22;15.70;86.10
8711;DHT22;4392;47.400;8.062;2023-04-22T14:55:53;15.60;86.20
8711;DHT22;4392;47.400;8.062;2023-04-22T14:58:20;15.60;86.70
8711;DHT22;4392;47.400;8.062;2023-04-22T15:00:47;15.60;86.60
8711;DHT22;4392;47.400;8.062;2023-04-22T15:03:16;15.60;87.00
8711;DHT22;4392;47.400;8.062;2023-04-22T15:05:42;15.60;87.20
8711;DHT22;4392;47.400;8.062;2023-04-22T15:08:08;15.60;87.50
8711;DHT22;4392;47.400;8.062;2023-04-22T15:10:34;15.60;87.80
8711;DHT22;4392;47.400;8.062;2023-04-22T15:13:09;15.60;88.10
8711;DHT22;4392;47.400;8.062;2023-04-22T15:15:42;15.50;87.70
8711;DHT22;4392;47.400;8.062;2023-04-22T15:18:08;15.50;88.30
8711;DHT22;4392;47.400;8.062;2023-04-22T15:20:35;15.50;88.80
8711;DHT22;4392;47.400;8.062;2023-04-22T15:23:00;15.50;89.20
8711;DHT22;4392;47.400;8.062;2023-04-22T15:25:33;15.50;88.90
8711;DHT22;4392;47.400;8.062;2023-04-22T15:28:06;15.50;89.00
8711;DHT22;4392;47.400;8.062;2023-04-22T15:30:53;15.70;94.20
8711;DHT22;4392;47.400;8.062;2023-04-22T15:33:19;15.70;90.30
8711;DHT22;4392;47.400;8.062;2023-04-22T15:35:45;15.60;90.30
8711;DHT22;4392;47.400;8.062;2023-04-22T15:38:34;15.50;90.10
8711;DHT22;4392;47.400;8.062;2023-04-22T15:41:43;15.50;90.50
8711;DHT22;4392;47.400;8.062;2023-04-22T15:44:11;15.40;91.30
8711;DHT22;4392;47.400;8.062;2023-04-22T15:46:37;15.50;91.30
8711;DHT22;4392;47.400;8.062;2023-04-22T15:49:08;15.50;91.30
8711;DHT22;4392;47.400;8.062;2023-04-22T15:51:36;15.60;92.10
8711;DHT22;4392;47.400;8.062;2023-04-22T15:54:01;15.60;93.00
8711;DHT22;4392;47.400;8.062;2023-04-22T15:56:31;15.50;93.60
8711;DHT22;4392;47.400;8.062;2023-04-22T15:58:58;15.30;94.40
8711;DHT22;4392;47.400;8.062;2023-04-22T16:01:27;15.20;95.10
8711;DHT22;4392;47.400;8.062;2023-04-22T16:03:52;15.20;95.20
8711;DHT22;4392;47.400;8.062;2023-04-22T16:06:21;15.10;95.30
8711;DHT22;4392;47.400;8.062;2023-04-22T16:08:47;15.40;99.90
8711;DHT22;4392;47.400;8.062;2023-04-22T16:11:13;15.70;96.80
8711;DHT22;4392;47.400;8.062;2023-04-22T16:13:45;15.50;95.60
8711;DHT22;4392;47.400;8.062;2023-04-22T16:16:11;15.40;95.50
8711;DHT22;4392;47.400;8.062;2023-04-22T16:18:39;15.40;95.50
8711;DHT22;4392;47.400;8.062;2023-04-22T16:21:05;15.40;95.70
8711;DHT22;4392;47.400;8.062;2023-04-22T16:23:31;15.40;95.60